sensor_id;sensor_type;location;lat;lon;timestamp;pressure;altitude;pressure_sealevel;temperature;humidity
79118;BME280;68523;51.336;-0.846;2023-07-20T00:00:00;100705.0;;;16.15;70.9
79118;BME280;68523;51.336;-0.846;2023-07-20T00:03:11;100705.0;;;16.14;71.2
79118;BME280;68523;51.336;-0.846;2023-07-20T00:06:00;100705.0;;;16.05;71.1
79118;BME280;68523;51.336;-0.846;2023-07-20T00:09:00;100705.0;;;15.93;71.5
79118;BME280;68523;51.336;-0.846;2023-07-20T00:12:00;100705.0;;;15.83;72.0
79118;BME280;68523;51.336;-0.846;2023-07-20T00:15:00;100705.0;;;15.73;72.0
79118;BME280;68523;51.336;-0.846;2023-07-20T00:18:00;100705.0;;;15.67;72.2
79118;BME280;68523;51.336;-0.846;2023-07-20T00:21:00;100695.0;;;15.58;72.7
79118;BME280;68523;51.336;-0.846;2023-07-20T00:24:00;100705.0;;;15.51;73.0
79118;BME280;68523;51.336;-0.846;2023-07-20T00:27:00;100705.0;;;15.47;73.4
79118;BME280;68523;51.336;-0.846;2023-07-20T00:30:00;100705.0;;;15.35;73.9
79118;BME280;68523;51.336;-0.846;2023-07-20T00:33:00;100705.0;;;15.27;74.6
79118;BME280;68523;51.336;-0.846;2023-07-20T00:36:00;100705.0;;;15.19;74.9
79118;BME280;68523;51.336;-0.846;2023-07-20T00:39:00;100705.0;;;15.19;75.0
79118;BME280;68523;51.336;-0.846;2023-07-20T00:42:00;100705.0;;;15.14;75.2
79118;BME280;68523;51.336;-0.846;2023-07-20T00:45:00;100705.0;;;15.06;75.4
79118;BME280;68523;51.336;-0.846;2023-07-20T00:48:01;100705.0;;;14.97;75.7
79118;BME280;68523;51.336;-0.846;2023-07-20T00:51:01;100695.0;;;14.88;75.8
79118;BME280;68523;51.336;-0.846;2023-07-20T00:54:00;100695.0;;;14.82;76.0
79118;BME280;68523;51.336;-0.846;2023-07-20T00:57:01;100705.0;;;14.76;76.2
79118;BME280;68523;51.336;-0.846;2023-07-20T01:00:01;100705.0;;;14.72;76.1
79118;BME280;68523;51.336;-0.846;2023-07-20T01:03:00;100705.0;;;14.67;76.1
79118;BME280;68523;51.336;-0.846;2023-07-20T01:06:10;100705.0;;;14.65;75.8
79118;BME280;68523;51.336;-0.846;2023-07-20T01:09:12;100695.0;;;14.58;75.2
79118;BME280;68523;51.336;-0.846;2023-07-20T01:12:06;100695.0;;;14.51;75.4
79118;BME280;68523;51.336;-0.846;2023-07-20T01:15:01;100695.0;;;14.46;75.6
79118;BME280;68523;51.336;-0.846;2023-07-20T01:18:00;100695.0;;;14.37;76.1
79118;BME280;68523;51.336;-0.846;2023-07-20T01:21:06;100685.0;;;14.31;76.1
79118;BME280;68523;51.336;-0.846;2023-07-20T01:30:11;100695.0;;;14.22;76.0
79118;BME280;68523;51.336;-0.846;2023-07-20T01:33:01;100695.0;;;14.18;75.7
79118;BME280;68523;51.336;-0.846;2023-07-20T01:36:01;100695.0;;;14.12;76.2
79118;BME280;68523;51.336;-0.846;2023-07-20T01:39:00;100695.0;;;14.07;76.4
79118;BME280;68523;51.336;-0.846;2023-07-20T01:42:00;100695.0;;;13.97;77.0
79118;BME280;68523;51.336;-0.846;2023-07-20T01:45:00;100695.0;;;13.92;77.3
79118;BME280;68523;51.336;-0.846;2023-07-20T01:48:00;100695.0;;;13.85;77.6
79118;BME280;68523;51.336;-0.846;2023-07-20T01:51:00;100685.0;;;13.82;77.7
79118;BME280;68523;51.336;-0.846;2023-07-20T01:54:00;100685.0;;;13.77;77.6
79118;BME280;68523;51.336;-0.846;2023-07-20T01:57:00;100685.0;;;13.74;78.0
79118;BME280;68523;51.336;-0.846;2023-07-20T02:00:00;100685.0;;;13.69;78.4
79118;BME280;68523;51.336;-0.846;2023-07-20T02:03:00;100685.0;;;13.64;78.5
79118;BME280;68523;51.336;-0.846;2023-07-20T02:06:00;100675.0;;;13.55;79.3
79118;BME280;68523;51.336;-0.846;2023-07-20T02:09:00;100675.0;;;13.45;79.8
79118;BME280;68523;51.336;-0.846;2023-07-20T02:12:00;100675.0;;;13.44;79.9
79118;BME280;68523;51.336;-0.846;2023-07-20T02:15:01;100675.0;;;13.41;80.1
79118;BME280;68523;51.336;-0.846;2023-07-20T02:18:00;100675.0;;;13.38;80.2
79118;BME280;68523;51.336;-0.846;2023-07-20T02:21:00;100675.0;;;13.31;80.5
79118;BME280;68523;51.336;-0.846;2023-07-20T02:24:00;100675.0;;;13.27;80.8
79118;BME280;68523;51.336;-0.846;2023-07-20T02:27:00;100675.0;;;13.19;81.1
79118;BME280;68523;51.336;-0.846;2023-07-20T02:30:00;100675.0;;;13.16;81.6
79118;BME280;68523;51.336;-0.846;2023-07-20T02:33:00;100675.0;;;13.08;82.2
79118;BME280;68523;51.336;-0.846;2023-07-20T02:36:00;100675.0;;;13.07;82.4
79118;BME280;68523;51.336;-0.846;2023-07-20T02:39:00;100675.0;;;13.08;82.7
79118;BME280;68523;51.336;-0.846;2023-07-20T02:42:00;100675.0;;;13.01;83.1
79118;BME280;68523;51.336;-0.846;2023-07-20T02:45:01;100675.0;;;13.02;82.9
79118;BME280;68523;51.336;-0.846;2023-07-20T02:48:00;100675.0;;;12.96;83.1
79118;BME280;68523;51.336;-0.846;2023-07-20T02:51:00;100675.0;;;12.90;83.4
79118;BME280;68523;51.336;-0.846;2023-07-20T02:54:00;100675.0;;;12.83;83.6
79118;BME280;68523;51.336;-0.846;2023-07-20T02:57:00;100675.0;;;12.79;83.7
79118;BME280;68523;51.336;-0.846;2023-07-20T03:00:01;100675.0;;;12.67;83.7
79118;BME280;68523;51.336;-0.846;2023-07-20T03:03:00;100675.0;;;12.66;83.9
79118;BME280;68523;51.336;-0.846;2023-07-20T03:06:00;100675.0;;;12.64;83.9
79118;BME280;68523;51.336;-0.846;2023-07-20T03:09:00;100675.0;;;12.56;83.9
79118;BME280;68523;51.336;-0.846;2023-07-20T03:12:00;100675.0;;;12.11;85.8
79118;BME280;68523;51.336;-0.846;2023-07-20T03:15:00;100675.0;;;12.22;85.8
79118;BME280;68523;51.336;-0.846;2023-07-20T03:18:00;100675.0;;;12.34;85.3
79118;BME280;68523;51.336;-0.846;2023-07-20T03:21:00;100675.0;;;12.35;85.0
79118;BME280;68523;51.336;-0.846;2023-07-20T03:24:00;100675.0;;;12.35;85.0
79118;BME280;68523;51.336;-0.846;2023-07-20T03:27:00;100675.0;;;12.32;84.9
79118;BME280;68523;51.336;-0.846;2023-07-20T03:30:00;100675.0;;;12.28;84.8
79118;BME280;68523;51.336;-0.846;2023-07-20T03:33:00;100675.0;;;12.28;84.7
79118;BME280;68523;51.336;-0.846;2023-07-20T03:36:00;100685.0;;;11.87;86.5
79118;BME280;68523;51.336;-0.846;2023-07-20T03:39:00;100685.0;;;11.46;88.5
79118;BME280;68523;51.336;-0.846;2023-07-20T03:42:00;100685.0;;;11.30;89.2
79118;BME280;68523;51.336;-0.846;2023-07-20T03:45:00;100675.0;;;11.19;89.5
79118;BME280;68523;51.336;-0.846;2023-07-20T03:48:00;100675.0;;;11.11;89.9
79118;BME280;68523;51.336;-0.846;2023-07-20T03:51:00;100675.0;;;11.07;89.8
79118;BME280;68523;51.336;-0.846;2023-07-20T03:54:00;100675.0;;;11.18;89.4
79118;BME280;68523;51.336;-0.846;2023-07-20T03:57:00;100675.0;;;11.29;89.3
79118;BME280;68523;51.336;-0.846;2023-07-20T04:00:00;100675.0;;;11.53;88.0
79118;BME280;68523;51.336;-0.846;2023-07-20T04:03:00;100675.0;;;11.66;87.2
79118;BME280;68523;51.336;-0.846;2023-07-20T04:06:00;100675.0;;;11.80;86.8
79118;BME280;68523;51.336;-0.846;2023-07-20T04:09:00;100675.0;;;11.78;86.7
79118;BME280;68523;51.336;-0.846;2023-07-20T04:12:00;100675.0;;;11.72;86.8
79118;BME280;68523;51.336;-0.846;2023-07-20T04:15:00;100675.0;;;11.47;88.0
79118;BME280;68523;51.336;-0.846;2023-07-20T04:18:00;100685.0;;;11.62;87.5
79118;BME280;68523;51.336;-0.846;2023-07-20T04:21:00;100685.0;;;11.64;87.3
79118;BME280;68523;51.336;-0.846;2023-07-20T04:24:00;100685.0;;;11.60;87.4
79118;BME280;68523;51.336;-0.846;2023-07-20T04:27:00;100685.0;;;11.62;87.3
79118;BME280;68523;51.336;-0.846;2023-07-20T04:30:00;100685.0;;;11.68;87.2
79118;BME280;68523;51.336;-0.846;2023-07-20T04:33:00;100675.0;;;11.66;87.1
79118;BME280;68523;51.336;-0.846;2023-07-20T04:36:00;100675.0;;;11.68;87.0
79118;BME280;68523;51.336;-0.846;2023-07-20T04:39:00;100675.0;;;11.59;87.2
79118;BME280;68523;51.336;-0.846;2023-07-20T04:42:00;100675.0;;;11.60;87.2
79118;BME280;68523;51.336;-0.846;2023-07-20T04:45:00;100675.0;;;11.57;87.4
79118;BME280;68523;51.336;-0.846;2023-07-20T04:48:00;100665.0;;;11.64;87.1
79118;BME280;68523;51.336;-0.846;2023-07-20T04:51:00;100665.0;;;11.75;86.6
79118;BME280;68523;51.336;-0.846;2023-07-20T04:54:00;100675.0;;;11.84;86.4
79118;BME280;68523;51.336;-0.846;2023-07-20T04:57:00;100675.0;;;11.83;86.4
79118;BME280;68523;51.336;-0.846;2023-07-20T05:00:00;100675.0;;;11.87;86.1
79118;BME280;68523;51.336;-0.846;2023-07-20T05:03:03;100675.0;;;11.90;86.2
79118;BME280;68523;51.336;-0.846;2023-07-20T05:06:01;100675.0;;;11.94;86.0
79118;BME280;68523;51.336;-0.846;2023-07-20T05:09:00;100675.0;;;12.00;85.9
79118;BME280;68523;51.336;-0.846;2023-07-20T05:12:00;100675.0;;;12.13;85.6
79118;BME280;68523;51.336;-0.846;2023-07-20T05:15:00;100675.0;;;12.19;85.3
79118;BME280;68523;51.336;-0.846;2023-07-20T05:18:00;100675.0;;;12.26;85.0
79118;BME280;68523;51.336;-0.846;2023-07-20T05:21:00;100675.0;;;12.46;84.5
79118;BME280;68523;51.336;-0.846;2023-07-20T05:24:00;100675.0;;;13.41;81.0
79118;BME280;68523;51.336;-0.846;2023-07-20T05:27:00;100675.0;;;14.20;77.8
79118;BME280;68523;51.336;-0.846;2023-07-20T05:30:00;100675.0;;;14.26;77.0
79118;BME280;68523;51.336;-0.846;2023-07-20T05:33:00;100675.0;;;14.35;77.4
79118;BME280;68523;51.336;-0.846;2023-07-20T05:36:00;100675.0;;;14.41;76.9
79118;BME280;68523;51.336;-0.846;2023-07-20T05:39:00;100675.0;;;14.60;76.2
79118;BME280;68523;51.336;-0.846;2023-07-20T05:42:00;100685.0;;;13.45;80.3
79118;BME280;68523;51.336;-0.846;2023-07-20T05:45:00;100685.0;;;13.18;81.9
79118;BME280;68523;51.336;-0.846;2023-07-20T05:48:00;100685.0;;;13.13;82.4
79118;BME280;68523;51.336;-0.846;2023-07-20T05:51:00;100685.0;;;13.63;80.7
79118;BME280;68523;51.336;-0.846;2023-07-20T05:54:00;100685.0;;;14.55;76.9
79118;BME280;68523;51.336;-0.846;2023-07-20T05:57:00;100685.0;;;14.05;78.3
79118;BME280;68523;51.336;-0.846;2023-07-20T06:00:00;100685.0;;;14.05;78.4
79118;BME280;68523;51.336;-0.846;2023-07-20T06:03:00;100685.0;;;14.84;75.8
79118;BME280;68523;51.336;-0.846;2023-07-20T06:06:01;100685.0;;;15.00;74.8
79118;BME280;68523;51.336;-0.846;2023-07-20T06:09:00;100685.0;;;15.61;73.4
79118;BME280;68523;51.336;-0.846;2023-07-20T06:12:00;100685.0;;;15.26;74.1
79118;BME280;68523;51.336;-0.846;2023-07-20T06:15:02;100685.0;;;15.82;72.1
79118;BME280;68523;51.336;-0.846;2023-07-20T06:18:01;100685.0;;;15.37;73.6
79118;BME280;68523;51.336;-0.846;2023-07-20T06:21:00;100685.0;;;15.76;72.9
79118;BME280;68523;51.336;-0.846;2023-07-20T06:24:00;100685.0;;;15.56;73.4
79118;BME280;68523;51.336;-0.846;2023-07-20T06:27:00;100685.0;;;15.65;72.7
79118;BME280;68523;51.336;-0.846;2023-07-20T06:30:00;100685.0;;;15.57;72.8
79118;BME280;68523;51.336;-0.846;2023-07-20T06:33:00;100685.0;;;15.77;72.5
79118;BME280;68523;51.336;-0.846;2023-07-20T06:36:00;100685.0;;;16.13;72.0
79118;BME280;68523;51.336;-0.846;2023-07-20T06:39:00;100685.0;;;15.88;72.6
79118;BME280;68523;51.336;-0.846;2023-07-20T06:42:00;100685.0;;;15.57;73.4
79118;BME280;68523;51.336;-0.846;2023-07-20T06:45:00;100685.0;;;14.82;76.9
79118;BME280;68523;51.336;-0.846;2023-07-20T06:48:00;100685.0;;;14.47;79.6
79118;BME280;68523;51.336;-0.846;2023-07-20T06:51:00;100685.0;;;15.06;77.2
79118;BME280;68523;51.336;-0.846;2023-07-20T06:54:01;100685.0;;;15.15;76.6
79118;BME280;68523;51.336;-0.846;2023-07-20T06:57:00;100685.0;;;15.33;76.3
79118;BME280;68523;51.336;-0.846;2023-07-20T07:00:00;100685.0;;;15.42;75.6
79118;BME280;68523;51.336;-0.846;2023-07-20T07:03:00;100685.0;;;15.25;75.1
79118;BME280;68523;51.336;-0.846;2023-07-20T07:06:00;100685.0;;;15.15;75.8
79118;BME280;68523;51.336;-0.846;2023-07-20T07:09:00;100685.0;;;15.62;76.7
79118;BME280;68523;51.336;-0.846;2023-07-20T07:12:00;100685.0;;;15.58;74.0
79118;BME280;68523;51.336;-0.846;2023-07-20T07:15:01;100685.0;;;15.83;74.2
79118;BME280;68523;51.336;-0.846;2023-07-20T07:18:00;100685.0;;;15.82;73.7
79118;BME280;68523;51.336;-0.846;2023-07-20T07:21:00;100685.0;;;16.17;72.6
79118;BME280;68523;51.336;-0.846;2023-07-20T07:24:00;100685.0;;;17.47;68.9
79118;BME280;68523;51.336;-0.846;2023-07-20T07:27:00;100685.0;;;17.85;67.5
79118;BME280;68523;51.336;-0.846;2023-07-20T07:30:00;100685.0;;;17.41;67.7
79118;BME280;68523;51.336;-0.846;2023-07-20T07:33:00;100685.0;;;17.94;68.1
79118;BME280;68523;51.336;-0.846;2023-07-20T07:36:00;100685.0;;;18.75;64.9
79118;BME280;68523;51.336;-0.846;2023-07-20T07:39:00;100685.0;;;18.97;64.3
79118;BME280;68523;51.336;-0.846;2023-07-20T07:42:00;100685.0;;;18.59;63.0
79118;BME280;68523;51.336;-0.846;2023-07-20T07:45:00;100685.0;;;18.08;64.4
79118;BME280;68523;51.336;-0.846;2023-07-20T07:48:00;100685.0;;;18.27;62.8
79118;BME280;68523;51.336;-0.846;2023-07-20T07:51:00;100685.0;;;18.60;62.1
79118;BME280;68523;51.336;-0.846;2023-07-20T07:54:00;100675.0;;;19.49;61.9
79118;BME280;68523;51.336;-0.846;2023-07-20T07:57:00;100675.0;;;19.41;59.9
79118;BME280;68523;51.336;-0.846;2023-07-20T08:00:00;100675.0;;;19.49;59.9
79118;BME280;68523;51.336;-0.846;2023-07-20T08:03:00;100675.0;;;18.36;61.9
79118;BME280;68523;51.336;-0.846;2023-07-20T08:06:00;100675.0;;;19.33;60.2
79118;BME280;68523;51.336;-0.846;2023-07-20T08:09:00;100675.0;;;18.31;60.7
79118;BME280;68523;51.336;-0.846;2023-07-20T08:12:00;100675.0;;;19.43;59.7
79118;BME280;68523;51.336;-0.846;2023-07-20T08:15:00;100675.0;;;20.54;57.8
79118;BME280;68523;51.336;-0.846;2023-07-20T08:18:00;100675.0;;;21.43;53.2
79118;BME280;68523;51.336;-0.846;2023-07-20T08:21:00;100675.0;;;19.80;55.0
79118;BME280;68523;51.336;-0.846;2023-07-20T08:24:00;100675.0;;;20.55;54.9
79118;BME280;68523;51.336;-0.846;2023-07-20T08:27:00;100675.0;;;19.92;55.2
79118;BME280;68523;51.336;-0.846;2023-07-20T08:30:00;100675.0;;;19.60;57.2
79118;BME280;68523;51.336;-0.846;2023-07-20T08:33:00;100675.0;;;19.79;55.2
79118;BME280;68523;51.336;-0.846;2023-07-20T08:36:00;100675.0;;;20.17;54.4
79118;BME280;68523;51.336;-0.846;2023-07-20T08:39:00;100675.0;;;19.75;55.6
79118;BME280;68523;51.336;-0.846;2023-07-20T08:42:01;100665.0;;;19.97;55.2
79118;BME280;68523;51.336;-0.846;2023-07-20T08:45:00;100675.0;;;20.28;54.3
79118;BME280;68523;51.336;-0.846;2023-07-20T08:48:01;100665.0;;;21.52;52.7
79118;BME280;68523;51.336;-0.846;2023-07-20T08:51:01;100665.0;;;21.48;51.2
79118;BME280;68523;51.336;-0.846;2023-07-20T08:54:00;100665.0;;;20.52;53.6
79118;BME280;68523;51.336;-0.846;2023-07-20T08:57:02;100665.0;;;20.93;53.6
79118;BME280;68523;51.336;-0.846;2023-07-20T09:00:02;100665.0;;;21.38;52.2
79118;BME280;68523;51.336;-0.846;2023-07-20T09:03:02;100665.0;;;21.60;52.5
79118;BME280;68523;51.336;-0.846;2023-07-20T09:06:00;100665.0;;;21.36;51.1
79118;BME280;68523;51.336;-0.846;2023-07-20T09:09:00;100665.0;;;21.76;50.0
79118;BME280;68523;51.336;-0.846;2023-07-20T09:12:00;100665.0;;;21.54;50.1
79118;BME280;68523;51.336;-0.846;2023-07-20T09:15:00;100665.0;;;21.03;50.3
79118;BME280;68523;51.336;-0.846;2023-07-20T09:18:01;100655.0;;;21.13;49.7
79118;BME280;68523;51.336;-0.846;2023-07-20T09:21:02;100655.0;;;20.94;49.8
79118;BME280;68523;51.336;-0.846;2023-07-20T09:24:00;100655.0;;;21.53;49.5
79118;BME280;68523;51.336;-0.846;2023-07-20T09:27:01;100655.0;;;21.71;50.4
79118;BME280;68523;51.336;-0.846;2023-07-20T09:30:00;100655.0;;;21.77;49.7
79118;BME280;68523;51.336;-0.846;2023-07-20T09:33:00;100655.0;;;21.92;53.8
79118;BME280;68523;51.336;-0.846;2023-07-20T09:36:02;100655.0;;;22.60;48.1
79118;BME280;68523;51.336;-0.846;2023-07-20T09:39:01;100655.0;;;23.11;47.6
79118;BME280;68523;51.336;-0.846;2023-07-20T09:42:00;100645.0;;;22.35;47.4
79118;BME280;68523;51.336;-0.846;2023-07-20T09:45:00;100645.0;;;21.81;48.8
79118;BME280;68523;51.336;-0.846;2023-07-20T09:48:03;100645.0;;;22.02;48.1
79118;BME280;68523;51.336;-0.846;2023-07-20T09:51:01;100645.0;;;22.05;46.5
79118;BME280;68523;51.336;-0.846;2023-07-20T09:54:00;100645.0;;;21.75;49.2
79118;BME280;68523;51.336;-0.846;2023-07-20T09:57:02;100645.0;;;22.36;47.6
79118;BME280;68523;51.336;-0.846;2023-07-20T10:00:00;100635.0;;;22.97;47.4
79118;BME280;68523;51.336;-0.846;2023-07-20T10:03:02;100635.0;;;22.67;45.8
79118;BME280;68523;51.336;-0.846;2023-07-20T10:06:05;100635.0;;;22.69;47.0
79118;BME280;68523;51.336;-0.846;2023-07-20T10:09:02;100635.0;;;22.89;45.2
79118;BME280;68523;51.336;-0.846;2023-07-20T10:12:00;100635.0;;;21.05;48.0
79118;BME280;68523;51.336;-0.846;2023-07-20T10:15:11;100625.0;;;22.49;45.9
79118;BME280;68523;51.336;-0.846;2023-07-20T10:18:05;100625.0;;;22.77;45.9
79118;BME280;68523;51.336;-0.846;2023-07-20T10:21:00;100625.0;;;22.01;45.5
79118;BME280;68523;51.336;-0.846;2023-07-20T10:24:01;100625.0;;;23.34;43.4
79118;BME280;68523;51.336;-0.846;2023-07-20T10:27:00;100625.0;;;23.50;42.2
79118;BME280;68523;51.336;-0.846;2023-07-20T10:30:00;100625.0;;;23.26;43.7
79118;BME280;68523;51.336;-0.846;2023-07-20T10:33:01;100625.0;;;23.65;42.0
79118;BME280;68523;51.336;-0.846;2023-07-20T10:36:02;100625.0;;;22.91;41.3
79118;BME280;68523;51.336;-0.846;2023-07-20T10:39:00;100625.0;;;23.19;41.0
79118;BME280;68523;51.336;-0.846;2023-07-20T10:42:01;100615.0;;;22.99;41.7
79118;BME280;68523;51.336;-0.846;2023-07-20T10:45:01;100615.0;;;23.29;41.5
79118;BME280;68523;51.336;-0.846;2023-07-20T10:48:03;100615.0;;;22.83;41.8
79118;BME280;68523;51.336;-0.846;2023-07-20T10:51:11;100615.0;;;23.02;41.1
79118;BME280;68523;51.336;-0.846;2023-07-20T10:54:02;100615.0;;;23.50;40.2
79118;BME280;68523;51.336;-0.846;2023-07-20T11:00:10;100615.0;;;23.34;37.9
79118;BME280;68523;51.336;-0.846;2023-07-20T11:03:00;100605.0;;;24.30;36.2
79118;BME280;68523;51.336;-0.846;2023-07-20T11:09:08;100605.0;;;23.05;41.5
79118;BME280;68523;51.336;-0.846;2023-07-20T11:12:09;100605.0;;;22.29;40.3
79118;BME280;68523;51.336;-0.846;2023-07-20T11:15:00;100605.0;;;21.24;43.9
79118;BME280;68523;51.336;-0.846;2023-07-20T11:18:11;100605.0;;;20.83;44.1
79118;BME280;68523;51.336;-0.846;2023-07-20T11:21:00;100595.0;;;22.29;42.1
79118;BME280;68523;51.336;-0.846;2023-07-20T11:24:03;100595.0;;;23.20;42.5
79118;BME280;68523;51.336;-0.846;2023-07-20T11:27:00;100605.0;;;23.35;39.4
79118;BME280;68523;51.336;-0.846;2023-07-20T11:30:00;100595.0;;;24.26;37.7
79118;BME280;68523;51.336;-0.846;2023-07-20T11:33:00;100595.0;;;23.37;39.5
79118;BME280;68523;51.336;-0.846;2023-07-20T11:36:00;100595.0;;;24.18;37.4
79118;BME280;68523;51.336;-0.846;2023-07-20T11:39:00;100595.0;;;23.49;40.5
79118;BME280;68523;51.336;-0.846;2023-07-20T11:42:00;100585.0;;;22.04;41.8
79118;BME280;68523;51.336;-0.846;2023-07-20T11:45:02;100585.0;;;21.10;43.7
79118;BME280;68523;51.336;-0.846;2023-07-20T11:48:00;100585.0;;;20.92;44.3
79118;BME280;68523;51.336;-0.846;2023-07-20T11:51:00;100585.0;;;22.06;42.5
79118;BME280;68523;51.336;-0.846;2023-07-20T11:54:01;100585.0;;;21.80;42.4
79118;BME280;68523;51.336;-0.846;2023-07-20T11:57:01;100585.0;;;21.36;43.0
79118;BME280;68523;51.336;-0.846;2023-07-20T12:00:02;100585.0;;;22.54;40.7
79118;BME280;68523;51.336;-0.846;2023-07-20T12:03:00;100575.0;;;23.30;40.6
79118;BME280;68523;51.336;-0.846;2023-07-20T12:06:06;100575.0;;;24.18;39.5
79118;BME280;68523;51.336;-0.846;2023-07-20T12:09:00;100575.0;;;23.50;38.8
79118;BME280;68523;51.336;-0.846;2023-07-20T12:12:09;100575.0;;;23.74;38.7
79118;BME280;68523;51.336;-0.846;2023-07-20T12:15:13;100565.0;;;23.47;37.5
79118;BME280;68523;51.336;-0.846;2023-07-20T12:18:02;100565.0;;;24.06;36.1
79118;BME280;68523;51.336;-0.846;2023-07-20T12:21:00;100555.0;;;24.52;38.7
79118;BME280;68523;51.336;-0.846;2023-07-20T12:24:00;100555.0;;;22.76;43.3
79118;BME280;68523;51.336;-0.846;2023-07-20T12:27:00;100555.0;;;22.28;43.0
79118;BME280;68523;51.336;-0.846;2023-07-20T12:30:00;100555.0;;;23.48;40.6
79118;BME280;68523;51.336;-0.846;2023-07-20T12:33:00;100555.0;;;24.03;37.6
79118;BME280;68523;51.336;-0.846;2023-07-20T12:36:00;100555.0;;;24.95;40.3
79118;BME280;68523;51.336;-0.846;2023-07-20T12:39:00;100545.0;;;25.58;37.4
79118;BME280;68523;51.336;-0.846;2023-07-20T12:42:00;100535.0;;;25.78;35.9
79118;BME280;68523;51.336;-0.846;2023-07-20T12:45:00;100535.0;;;25.22;35.5
79118;BME280;68523;51.336;-0.846;2023-07-20T12:48:00;100535.0;;;24.23;35.6
79118;BME280;68523;51.336;-0.846;2023-07-20T12:51:00;100535.0;;;24.59;37.5
79118;BME280;68523;51.336;-0.846;2023-07-20T12:54:00;100525.0;;;24.74;37.1
79118;BME280;68523;51.336;-0.846;2023-07-20T12:57:00;100525.0;;;24.75;35.2
79118;BME280;68523;51.336;-0.846;2023-07-20T13:00:00;100525.0;;;24.23;37.6
79118;BME280;68523;51.336;-0.846;2023-07-20T13:03:00;100515.0;;;23.95;37.4
79118;BME280;68523;51.336;-0.846;2023-07-20T13:06:00;100515.0;;;23.58;37.9
79118;BME280;68523;51.336;-0.846;2023-07-20T13:09:00;100505.0;;;23.03;40.0
79118;BME280;68523;51.336;-0.846;2023-07-20T13:12:00;100505.0;;;22.30;41.2
79118;BME280;68523;51.336;-0.846;2023-07-20T13:15:01;100505.0;;;22.09;41.7
79118;BME280;68523;51.336;-0.846;2023-07-20T13:18:00;100505.0;;;24.07;38.8
79118;BME280;68523;51.336;-0.846;2023-07-20T13:21:00;100505.0;;;23.42;38.3
79118;BME280;68523;51.336;-0.846;2023-07-20T13:24:00;100505.0;;;25.19;38.8
79118;BME280;68523;51.336;-0.846;2023-07-20T13:27:00;100505.0;;;24.70;36.4
79118;BME280;68523;51.336;-0.846;2023-07-20T13:30:00;100505.0;;;24.54;34.9
79118;BME280;68523;51.336;-0.846;2023-07-20T13:33:00;100505.0;;;25.25;34.5
79118;BME280;68523;51.336;-0.846;2023-07-20T13:36:00;100495.0;;;24.33;34.5
79118;BME280;68523;51.336;-0.846;2023-07-20T13:39:00;100495.0;;;24.86;35.5
79118;BME280;68523;51.336;-0.846;2023-07-20T13:42:00;100495.0;;;25.42;33.3
79118;BME280;68523;51.336;-0.846;2023-07-20T13:45:00;100495.0;;;25.54;33.0
79118;BME280;68523;51.336;-0.846;2023-07-20T13:48:00;100485.0;;;26.63;31.7
79118;BME280;68523;51.336;-0.846;2023-07-20T13:51:00;100485.0;;;26.77;30.1
79118;BME280;68523;51.336;-0.846;2023-07-20T13:54:00;100485.0;;;26.71;30.3
79118;BME280;68523;51.336;-0.846;2023-07-20T13:57:00;100485.0;;;26.90;29.4
79118;BME280;68523;51.336;-0.846;2023-07-20T14:00:00;100475.0;;;26.60;29.7
79118;BME280;68523;51.336;-0.846;2023-07-20T14:03:00;100475.0;;;24.81;34.6
79118;BME280;68523;51.336;-0.846;2023-07-20T14:06:00;100475.0;;;23.45;34.4
79118;BME280;68523;51.336;-0.846;2023-07-20T14:09:00;100475.0;;;23.13;36.7
79118;BME280;68523;51.336;-0.846;2023-07-20T14:12:00;100475.0;;;22.80;39.6
79118;BME280;68523;51.336;-0.846;2023-07-20T14:15:00;100465.0;;;23.02;39.4
79118;BME280;68523;51.336;-0.846;2023-07-20T14:18:00;100475.0;;;22.95;38.7
79118;BME280;68523;51.336;-0.846;2023-07-20T14:21:00;100475.0;;;23.15;37.7
79118;BME280;68523;51.336;-0.846;2023-07-20T14:24:00;100475.0;;;22.65;35.2
79118;BME280;68523;51.336;-0.846;2023-07-20T14:27:00;100475.0;;;22.33;37.2
79118;BME280;68523;51.336;-0.846;2023-07-20T14:30:00;100465.0;;;22.74;38.5
79118;BME280;68523;51.336;-0.846;2023-07-20T14:33:00;100465.0;;;23.40;37.8
79118;BME280;68523;51.336;-0.846;2023-07-20T14:36:00;100465.0;;;24.78;34.8
79118;BME280;68523;51.336;-0.846;2023-07-20T14:39:00;100455.0;;;24.04;35.1
79118;BME280;68523;51.336;-0.846;2023-07-20T14:42:01;100455.0;;;23.95;36.9
79118;BME280;68523;51.336;-0.846;2023-07-20T14:45:00;100455.0;;;23.73;38.3
79118;BME280;68523;51.336;-0.846;2023-07-20T14:48:00;100455.0;;;22.80;38.1
79118;BME280;68523;51.336;-0.846;2023-07-20T14:51:00;100455.0;;;22.44;39.0
79118;BME280;68523;51.336;-0.846;2023-07-20T14:54:01;100455.0;;;22.81;40.7
79118;BME280;68523;51.336;-0.846;2023-07-20T14:57:00;100455.0;;;22.60;41.0
79118;BME280;68523;51.336;-0.846;2023-07-20T15:00:00;100455.0;;;23.12;39.9
79118;BME280;68523;51.336;-0.846;2023-07-20T15:03:00;100455.0;;;24.86;38.0
79118;BME280;68523;51.336;-0.846;2023-07-20T15:06:01;100455.0;;;25.02;36.3
79118;BME280;68523;51.336;-0.846;2023-07-20T15:09:00;100455.0;;;25.41;37.3
79118;BME280;68523;51.336;-0.846;2023-07-20T15:12:00;100445.0;;;25.06;35.9
79118;BME280;68523;51.336;-0.846;2023-07-20T15:15:03;100445.0;;;25.87;34.7
79118;BME280;68523;51.336;-0.846;2023-07-20T15:18:00;100445.0;;;24.29;37.2
79118;BME280;68523;51.336;-0.846;2023-07-20T15:21:00;100445.0;;;23.11;39.0
79118;BME280;68523;51.336;-0.846;2023-07-20T15:24:00;100445.0;;;22.78;39.1
79118;BME280;68523;51.336;-0.846;2023-07-20T15:27:00;100435.0;;;22.27;39.7
79118;BME280;68523;51.336;-0.846;2023-07-20T15:30:00;100435.0;;;22.22;41.3
79118;BME280;68523;51.336;-0.846;2023-07-20T15:33:00;100435.0;;;22.41;41.5
79118;BME280;68523;51.336;-0.846;2023-07-20T15:36:00;100435.0;;;22.42;40.8
79118;BME280;68523;51.336;-0.846;2023-07-20T15:39:00;100435.0;;;22.30;38.0
79118;BME280;68523;51.336;-0.846;2023-07-20T15:42:00;100425.0;;;22.98;37.6
79118;BME280;68523;51.336;-0.846;2023-07-20T15:45:00;100425.0;;;23.20;40.0
79118;BME280;68523;51.336;-0.846;2023-07-20T15:48:00;100425.0;;;23.59;39.6
79118;BME280;68523;51.336;-0.846;2023-07-20T15:51:00;100425.0;;;22.82;39.8
79118;BME280;68523;51.336;-0.846;2023-07-20T15:54:00;100425.0;;;22.81;41.2
79118;BME280;68523;51.336;-0.846;2023-07-20T15:57:00;100415.0;;;22.68;40.5
79118;BME280;68523;51.336;-0.846;2023-07-20T16:00:00;100415.0;;;23.22;40.2
79118;BME280;68523;51.336;-0.846;2023-07-20T16:03:00;100415.0;;;22.47;40.5